createdAt,value
2023-03-16T00:00:13.609Z,-1.50
2023-03-16T00:02:44.117Z,-1.50
2023-03-16T00:05:12.955Z,-1.50
2023-03-16T00:07:41.821Z,-1.40
2023-03-16T00:10:12.232Z,-1.30
2023-03-16T00:12:39.456Z,-1.30
2023-03-16T00:15:06.729Z,-1.30
2023-03-16T00:17:34.623Z,-1.30
2023-03-16T00:20:03.121Z,-1.30
2023-03-16T00:22:30.560Z,-1.50
2023-03-16T00:24:58.301Z,-1.60
2023-03-16T00:27:26.383Z,-1.50
2023-03-16T00:29:57.405Z,-1.50
2023-03-16T00:32:29.761Z,-1.60
2023-03-16T00:34:56.732Z,-1.70
2023-03-16T00:37:25.010Z,-1.70
2023-03-16T00:39:52.565Z,-1.70
2023-03-16T00:42:20.155Z,-1.60
2023-03-16T00:44:47.064Z,-1.60
2023-03-16T00:47:14.347Z,-1.60
2023-03-16T00:49:43.153Z,-1.50
2023-03-16T00:52:15.129Z,-1.50
2023-03-16T00:54:43.409Z,-1.50
2023-03-16T00:57:12.283Z,-1.50
2023-03-16T00:59:39.040Z,-1.50
2023-03-16T01:02:10.049Z,-1.80
2023-03-16T01:04:37.411Z,-1.80
2023-03-16T01:07:05.069Z,-1.60
2023-03-16T01:09:36.723Z,-1.60
2023-03-16T01:12:09.053Z,-1.60
2023-03-16T01:14:36.586Z,-1.60
2023-03-16T01:17:08.213Z,-1.50
2023-03-16T01:19:36.392Z,-1.70
2023-03-16T01:22:09.626Z,-1.80
2023-03-16T01:24:37.000Z,-2.00
2023-03-16T01:27:04.809Z,-2.10
2023-03-16T01:29:32.958Z,-2.10
2023-03-16T01:32:01.186Z,-2.20
2023-03-16T01:34:28.488Z,-2.00
2023-03-16T01:36:56.271Z,-2.00
2023-03-16T01:39:29.814Z,-2.20
2023-03-16T01:41:56.513Z,-2.30
2023-03-16T01:44:30.338Z,-2.40
2023-03-16T01:47:00.712Z,-2.40
2023-03-16T01:49:32.720Z,-2.30
2023-03-16T01:52:27.200Z,-2.10
2023-03-16T01:55:08.665Z,-2.00
2023-03-16T01:57:40.348Z,-2.00
2023-03-16T02:00:23.403Z,-2.00
2023-03-16T02:03:18.423Z,-1.90
2023-03-16T02:06:01.835Z,-1.90
2023-03-16T02:08:32.185Z,-1.90
2023-03-16T02:10:59.353Z,-1.90
2023-03-16T02:13:37.939Z,-1.80
2023-03-16T02:16:08.196Z,-1.80
2023-03-16T02:18:35.721Z,-1.90
2023-03-16T02:21:19.234Z,-2.00
2023-03-16T02:23:47.100Z,-2.20
2023-03-16T02:26:35.922Z,-2.20
2023-03-16T02:29:29.628Z,-2.20
2023-03-16T02:31:58.101Z,-2.40
2023-03-16T02:34:26.181Z,-2.40
2023-03-16T02:36:53.710Z,-2.50
2023-03-16T02:39:24.467Z,-2.40
2023-03-16T02:41:51.134Z,-2.40
2023-03-16T02:44:24.128Z,-2.40
2023-03-16T02:46:56.121Z,-2.30
2023-03-16T02:49:33.969Z,-2.20
2023-03-16T02:52:00.610Z,-2.10
2023-03-16T02:54:27.341Z,-2.00
2023-03-16T02:56:54.174Z,-2.00
2023-03-16T02:59:21.656Z,-2.00
2023-03-16T03:01:51.515Z,-1.90
2023-03-16T03:04:18.393Z,-1.80
2023-03-16T03:06:45.152Z,-1.70
2023-03-16T03:09:12.180Z,-1.60
2023-03-16T03:11:39.884Z,-1.60
2023-03-16T03:14:06.663Z,-1.60
2023-03-16T03:16:34.395Z,-1.70
2023-03-16T03:19:01.247Z,-1.60
2023-03-16T03:21:30.410Z,-1.50
2023-03-16T03:23:57.201Z,-1.40
2023-03-16T03:26:24.729Z,-1.40
2023-03-16T03:28:52.507Z,-1.30
2023-03-16T03:31:22.011Z,-1.20
2023-03-16T03:33:49.529Z,-1.20
2023-03-16T03:36:16.693Z,-1.10
2023-03-16T03:38:44.745Z,-1.00
2023-03-16T03:41:12.654Z,-0.90
2023-03-16T03:43:39.642Z,-0.80
2023-03-16T03:46:10.593Z,-0.80
2023-03-16T03:48:37.311Z,-0.80
2023-03-16T03:51:05.418Z,-0.70
2023-03-16T03:53:55.062Z,-0.70
2023-03-16T03:56:36.434Z,-0.70
2023-03-16T03:59:05.092Z,-0.60
2023-03-16T04:01:58.229Z,-0.60
2023-03-16T04:04:29.886Z,-0.60
2023-03-16T04:06:56.567Z,-0.60
2023-03-16T04:09:23.765Z,-0.60
2023-03-16T04:11:50.809Z,-0.50
2023-03-16T04:14:17.518Z,-0.50
2023-03-16T04:16:44.587Z,-0.50
2023-03-16T04:19:13.210Z,-0.40
2023-03-16T04:21:40.633Z,-0.40
2023-03-16T04:24:07.574Z,-0.30
2023-03-16T04:26:36.207Z,-0.30
2023-03-16T04:29:04.168Z,-0.20
2023-03-16T04:31:32.374Z,-0.20
2023-03-16T04:33:59.394Z,-0.10
2023-03-16T04:36:26.094Z,-0.10
2023-03-16T04:38:53.804Z,-0.10
2023-03-16T04:41:20.564Z,-0.10
2023-03-16T04:43:55.206Z,-0.10
2023-03-16T04:46:24.993Z,-0.20
2023-03-16T04:48:51.989Z,-0.20
2023-03-16T04:51:18.713Z,-0.30
2023-03-16T04:53:59.264Z,-0.20
2023-03-16T04:56:33.824Z,-0.20
2023-03-16T04:59:04.800Z,-0.30
2023-03-16T05:01:43.410Z,-0.30
2023-03-16T05:04:15.036Z,-0.30
2023-03-16T05:06:45.843Z,-0.40
2023-03-16T05:09:13.846Z,-0.40
2023-03-16T05:11:40.712Z,-0.40
2023-03-16T05:14:10.165Z,-0.40
2023-03-16T05:16:49.803Z,-0.40
2023-03-16T05:19:16.497Z,-0.40
2023-03-16T05:21:45.606Z,-0.40
2023-03-16T05:24:12.688Z,-0.30
2023-03-16T05:26:39.646Z,-0.30
2023-03-16T05:29:10.315Z,-0.30
2023-03-16T05:31:38.334Z,-0.20
2023-03-16T05:34:10.664Z,-0.20
2023-03-16T05:36:37.398Z,-0.20
2023-03-16T05:39:08.790Z,-0.10
2023-03-16T05:41:39.277Z,-0.10
2023-03-16T05:44:13.498Z,-0.10
2023-03-16T05:46:57.153Z,0.00
2023-03-16T05:49:23.898Z,0.00
2023-03-16T05:51:50.766Z,0.10
2023-03-16T05:54:17.583Z,0.10
2023-03-16T05:56:46.042Z,0.10
2023-03-16T05:59:13.083Z,0.20
2023-03-16T06:01:40.162Z,0.30
2023-03-16T06:04:07.266Z,0.30
2023-03-16T06:06:37.122Z,0.30
2023-03-16T06:09:15.021Z,0.30
2023-03-16T06:11:42.233Z,0.30
2023-03-16T06:14:09.090Z,0.40
2023-03-16T06:16:36.785Z,0.40
2023-03-16T06:19:03.517Z,0.50
2023-03-16T06:21:32.138Z,0.50
2023-03-16T06:24:05.157Z,0.60
2023-03-16T06:26:31.889Z,0.60
2023-03-16T06:28:59.584Z,0.70
2023-03-16T06:31:26.297Z,0.70
2023-03-16T06:33:53.040Z,0.60
2023-03-16T06:36:19.723Z,0.70
2023-03-16T06:38:51.697Z,0.60
2023-03-16T06:41:24.675Z,0.60
2023-03-16T06:43:51.537Z,0.60
2023-03-16T06:46:18.215Z,0.60
2023-03-16T06:48:47.180Z,0.60
2023-03-16T06:51:16.290Z,0.60
2023-03-16T06:53:44.638Z,0.60
2023-03-16T06:56:11.687Z,0.70
2023-03-16T06:58:41.639Z,0.80
2023-03-16T07:01:08.396Z,0.80
2023-03-16T07:03:35.313Z,0.80
2023-03-16T07:06:09.432Z,0.90
2023-03-16T07:08:36.208Z,0.90
2023-03-16T07:11:03.391Z,1.00
2023-03-16T07:13:30.391Z,1.10
2023-03-16T07:15:57.432Z,1.20
2023-03-16T07:18:26.073Z,1.20
2023-03-16T07:20:54.533Z,1.40
2023-03-16T07:23:24.749Z,1.40
2023-03-16T07:25:53.133Z,1.50
2023-03-16T07:28:20.599Z,1.60
2023-03-16T07:31:02.428Z,1.60
2023-03-16T07:33:33.003Z,1.70
2023-03-16T07:36:05.549Z,1.70
2023-03-16T07:38:36.252Z,1.80
2023-03-16T07:41:03.890Z,1.80
2023-03-16T07:43:30.605Z,1.90
2023-03-16T07:45:57.327Z,1.90
2023-03-16T07:48:25.888Z,1.90
2023-03-16T07:50:56.509Z,2.00
2023-03-16T07:53:24.537Z,2.10
2023-03-16T07:56:02.141Z,2.20
2023-03-16T07:58:31.942Z,2.20
2023-03-16T08:00:59.859Z,2.30
2023-03-16T08:03:27.349Z,2.30
2023-03-16T08:05:55.126Z,2.40
2023-03-16T08:08:22.900Z,2.40
2023-03-16T08:10:56.552Z,2.50
2023-03-16T08:13:30.026Z,2.50
2023-03-16T08:16:01.919Z,2.60
2023-03-16T08:18:38.132Z,2.70
2023-03-16T08:21:06.556Z,2.60
2023-03-16T08:23:33.808Z,2.70
2023-03-16T08:26:01.034Z,2.90
2023-03-16T08:28:27.931Z,3.00
2023-03-16T08:30:56.033Z,3.00
2023-03-16T08:33:44.316Z,3.10
2023-03-16T08:36:14.120Z,3.20
2023-03-16T08:38:45.351Z,3.30
2023-03-16T08:41:17.192Z,3.40
2023-03-16T08:43:46.637Z,3.50
2023-03-16T08:46:14.278Z,3.50
2023-03-16T08:49:14.246Z,3.60
2023-03-16T08:51:44.465Z,3.50
2023-03-16T08:54:12.079Z,3.50
2023-03-16T08:56:38.759Z,3.60
2023-03-16T08:59:05.654Z,3.80
2023-03-16T09:01:32.437Z,3.90
2023-03-16T09:04:00.457Z,4.00
2023-03-16T09:06:27.605Z,4.20
2023-03-16T09:08:55.952Z,4.40
2023-03-16T09:11:23.269Z,4.50
2023-03-16T09:13:52.737Z,4.60
2023-03-16T09:16:19.973Z,4.60
2023-03-16T09:18:47.774Z,4.60
2023-03-16T09:21:14.953Z,4.80
2023-03-16T09:23:42.931Z,5.00
2023-03-16T09:26:12.297Z,5.20
2023-03-16T09:28:41.918Z,5.30
2023-03-16T09:31:15.081Z,5.40
2023-03-16T09:33:41.848Z,5.50
2023-03-16T09:36:11.334Z,5.80
2023-03-16T09:38:38.439Z,5.60
2023-03-16T09:41:16.958Z,5.50
2023-03-16T09:43:49.604Z,5.60
2023-03-16T09:46:27.686Z,5.70
2023-03-16T09:48:56.518Z,5.70
2023-03-16T09:51:40.341Z,6.00
2023-03-16T09:54:34.229Z,6.50
2023-03-16T09:57:01.834Z,6.70
2023-03-16T09:59:28.576Z,6.60
2023-03-16T10:02:27.096Z,6.90
2023-03-16T10:05:10.839Z,6.90
2023-03-16T10:07:52.620Z,7.00
2023-03-16T10:10:31.108Z,7.10
2023-03-16T10:13:00.954Z,7.20
2023-03-16T10:15:31.186Z,7.00
2023-03-16T10:18:24.695Z,6.90
2023-03-16T10:20:55.236Z,7.10
2023-03-16T10:23:24.576Z,6.90
2023-03-16T10:25:54.058Z,7.20
2023-03-16T10:28:26.296Z,7.10
2023-03-16T10:30:55.431Z,7.10
2023-03-16T10:33:28.845Z,7.20
2023-03-16T10:36:11.324Z,7.50
2023-03-16T10:38:38.725Z,7.50
2023-03-16T10:41:27.832Z,7.50
2023-03-16T10:43:55.527Z,7.70
2023-03-16T10:46:24.815Z,7.50
2023-03-16T10:49:01.049Z,7.60
2023-03-16T10:51:38.047Z,7.70
2023-03-16T10:54:14.090Z,7.60
2023-03-16T10:56:40.753Z,7.70
2023-03-16T10:59:34.445Z,7.80
2023-03-16T11:02:16.750Z,7.90
2023-03-16T11:04:43.525Z,7.90
2023-03-16T11:07:20.592Z,8.10
2023-03-16T11:09:50.780Z,8.40
2023-03-16T11:12:36.542Z,8.40
2023-03-16T11:15:09.372Z,8.10
2023-03-16T11:17:49.587Z,8.00
2023-03-16T11:20:20.329Z,7.90
2023-03-16T11:22:48.349Z,8.10
2023-03-16T11:25:41.245Z,8.10
2023-03-16T11:28:12.772Z,8.30
2023-03-16T11:30:59.169Z,8.20
2023-03-16T11:33:27.094Z,8.20
2023-03-16T11:36:17.218Z,8.00
2023-03-16T11:39:04.551Z,8.10
2023-03-16T11:41:41.039Z,7.80
2023-03-16T11:44:13.618Z,7.80
2023-03-16T11:46:51.604Z,7.80
2023-03-16T11:49:42.089Z,8.00
2023-03-16T11:52:11.501Z,7.90
2023-03-16T11:55:09.025Z,7.90
2023-03-16T11:57:41.413Z,7.90
2023-03-16T12:00:22.558Z,8.10
2023-03-16T12:02:55.253Z,8.20
2023-03-16T12:05:45.002Z,8.30
2023-03-16T12:08:20.609Z,8.10
2023-03-16T12:11:23.163Z,8.10
2023-03-16T12:14:15.492Z,8.10
2023-03-16T12:17:04.599Z,8.20
2023-03-16T12:19:51.960Z,8.40
2023-03-16T12:22:21.405Z,8.30
2023-03-16T12:24:48.585Z,8.10
2023-03-16T12:27:22.476Z,8.00
2023-03-16T12:30:04.729Z,8.00
2023-03-16T12:32:53.386Z,8.20
2023-03-16T12:35:42.083Z,8.40
2023-03-16T12:38:22.740Z,8.50
2023-03-16T12:41:26.890Z,8.50
2023-03-16T12:44:18.967Z,8.40
2023-03-16T12:46:57.670Z,8.50
2023-03-16T12:49:25.109Z,8.40
2023-03-16T12:52:08.533Z,8.40
2023-03-16T12:54:36.716Z,8.50
2023-03-16T12:57:08.979Z,8.30
2023-03-16T12:59:42.930Z,8.20
2023-03-16T13:02:26.416Z,8.20
2023-03-16T13:05:09.928Z,8.20
2023-03-16T13:07:38.826Z,8.30
2023-03-16T13:10:13.769Z,8.20
2023-03-16T13:12:43.934Z,8.20
2023-03-16T13:15:20.049Z,8.30
2023-03-16T13:17:50.795Z,8.30
2023-03-16T13:20:31.192Z,8.20
2023-03-16T13:23:10.346Z,8.10
2023-03-16T13:25:43.285Z,8.10
2023-03-16T13:28:15.444Z,8.10
2023-03-16T13:30:49.497Z,8.00
2023-03-16T13:33:26.182Z,8.10
2023-03-16T13:35:55.891Z,8.00
2023-03-16T13:38:27.572Z,8.10
2023-03-16T13:40:58.278Z,8.20
2023-03-16T13:43:31.576Z,8.30
2023-03-16T13:45:58.647Z,8.20
2023-03-16T13:48:25.763Z,7.90
2023-03-16T13:50:59.834Z,7.90
2023-03-16T13:53:32.717Z,8.00
2023-03-16T13:56:02.067Z,8.10
2023-03-16T13:58:33.648Z,8.10
2023-03-16T14:01:04.089Z,8.20
2023-03-16T14:03:33.973Z,8.20
2023-03-16T14:06:01.713Z,8.00
2023-03-16T14:08:29.802Z,8.10
2023-03-16T14:11:00.931Z,8.20
2023-03-16T14:13:27.897Z,8.10
2023-03-16T14:15:56.370Z,8.10
2023-03-16T14:18:26.709Z,8.20
2023-03-16T14:20:55.355Z,8.10
2023-03-16T14:23:30.926Z,8.20
2023-03-16T14:25:57.866Z,8.10
2023-03-16T14:28:32.412Z,8.10
2023-03-16T14:31:10.999Z,8.10
2023-03-16T14:33:41.876Z,8.10
2023-03-16T14:36:17.482Z,8.00
2023-03-16T14:38:48.093Z,8.00
2023-03-16T14:41:26.219Z,8.00
2023-03-16T14:43:58.944Z,8.10
2023-03-16T14:46:37.795Z,8.10
2023-03-16T14:49:27.974Z,8.00
2023-03-16T14:52:09.189Z,8.00
2023-03-16T14:54:36.666Z,7.90
2023-03-16T14:57:08.108Z,7.90
2023-03-16T14:59:34.928Z,7.80
2023-03-16T15:02:04.093Z,7.80
2023-03-16T15:04:34.588Z,7.90
2023-03-16T15:07:06.884Z,7.80
2023-03-16T15:09:39.495Z,7.70
2023-03-16T15:12:25.990Z,7.70
2023-03-16T15:15:11.592Z,7.70
2023-03-16T15:17:38.773Z,7.60
2023-03-16T15:20:07.170Z,7.70
2023-03-16T15:22:39.107Z,7.80
2023-03-16T15:25:20.222Z,7.80
2023-03-16T15:27:47.930Z,7.80
2023-03-16T15:30:28.920Z,7.70
2023-03-16T15:32:56.573Z,7.70
2023-03-16T15:35:23.377Z,7.80
2023-03-16T15:37:50.131Z,7.70
2023-03-16T15:40:24.216Z,7.80
2023-03-16T15:42:51.509Z,7.70
2023-03-16T15:45:21.352Z,7.70
2023-03-16T15:47:49.541Z,7.70
2023-03-16T15:50:18.524Z,7.60
2023-03-16T15:52:58.081Z,7.60
2023-03-16T15:55:33.080Z,7.60
2023-03-16T15:58:02.321Z,7.50
2023-03-16T16:00:34.545Z,7.50
2023-03-16T16:03:02.772Z,7.50
2023-03-16T16:05:30.787Z,7.50
2023-03-16T16:07:58.214Z,7.40
2023-03-16T16:10:26.812Z,7.50
2023-03-16T16:12:55.682Z,7.50
2023-03-16T16:15:33.676Z,7.40
2023-03-16T16:18:20.429Z,7.50
2023-03-16T16:20:49.070Z,7.40
2023-03-16T16:23:15.713Z,7.50
2023-03-16T16:25:42.727Z,7.40
2023-03-16T16:28:22.896Z,7.40
2023-03-16T16:30:50.490Z,7.40
2023-03-16T16:33:34.348Z,7.40
2023-03-16T16:36:03.593Z,7.40
2023-03-16T16:38:31.835Z,7.30
2023-03-16T16:41:01.585Z,7.30
2023-03-16T16:43:52.744Z,7.20
2023-03-16T16:46:23.571Z,7.20
2023-03-16T16:48:58.650Z,7.20
2023-03-16T16:51:27.633Z,7.10
2023-03-16T16:53:56.788Z,7.00
2023-03-16T16:56:30.123Z,7.00
2023-03-16T16:58:58.182Z,7.00
2023-03-16T17:01:34.391Z,7.00
2023-03-16T17:04:02.613Z,6.90
2023-03-16T17:06:29.880Z,6.90
2023-03-16T17:08:56.521Z,6.90
2023-03-16T17:11:24.973Z,6.80
2023-03-16T17:13:53.744Z,6.80
2023-03-16T17:16:26.539Z,6.80
2023-03-16T17:18:54.167Z,6.70
2023-03-16T17:21:23.655Z,6.70
2023-03-16T17:23:52.659Z,6.70
2023-03-16T17:26:27.825Z,6.70
2023-03-16T17:28:57.297Z,6.70
2023-03-16T17:31:27.002Z,6.70
2023-03-16T17:33:55.070Z,6.70
2023-03-16T17:36:22.648Z,6.60
2023-03-16T17:38:50.023Z,6.60
2023-03-16T17:41:24.841Z,6.60
2023-03-16T17:43:56.523Z,6.60
2023-03-16T17:46:26.402Z,6.60
2023-03-16T17:48:55.441Z,6.50
2023-03-16T17:51:25.375Z,6.60
2023-03-16T17:53:52.820Z,6.50
2023-03-16T17:56:27.612Z,6.50
2023-03-16T17:58:57.251Z,6.50
2023-03-16T18:01:35.013Z,6.50
2023-03-16T18:04:02.654Z,6.40
2023-03-16T18:06:31.096Z,6.40
2023-03-16T18:08:57.918Z,6.40
2023-03-16T18:11:33.983Z,6.40
2023-03-16T18:14:01.282Z,6.40
2023-03-16T18:16:28.167Z,6.40
2023-03-16T18:18:58.935Z,6.40
2023-03-16T18:21:26.552Z,6.40
2023-03-16T18:23:53.982Z,6.40
2023-03-16T18:26:22.129Z,6.30
2023-03-16T18:28:48.780Z,6.30
2023-03-16T18:31:21.527Z,6.40
2023-03-16T18:33:54.808Z,6.30
2023-03-16T18:36:29.740Z,6.30
2023-03-16T18:38:58.548Z,6.30
2023-03-16T18:41:28.180Z,6.30
2023-03-16T18:43:57.164Z,6.40
2023-03-16T18:46:26.873Z,6.30
2023-03-16T18:48:56.761Z,6.30
2023-03-16T18:51:24.137Z,6.30
2023-03-16T18:53:51.238Z,6.30
2023-03-16T18:56:21.152Z,6.30
2023-03-16T18:58:49.473Z,6.30
2023-03-16T19:01:23.791Z,6.30
2023-03-16T19:03:52.356Z,6.30
2023-03-16T19:06:25.059Z,6.20
2023-03-16T19:08:52.228Z,6.20
2023-03-16T19:11:19.295Z,6.20
2023-03-16T19:13:46.116Z,6.20
2023-03-16T19:16:22.694Z,6.20
2023-03-16T19:18:49.821Z,6.20
2023-03-16T19:21:19.289Z,6.10
2023-03-16T19:23:53.558Z,6.10
2023-03-16T19:26:20.256Z,6.20
2023-03-16T19:28:47.164Z,6.20
2023-03-16T19:31:16.533Z,6.20
2023-03-16T19:33:43.247Z,6.20
2023-03-16T19:36:25.486Z,6.10
2023-03-16T19:38:52.632Z,6.10
2023-03-16T19:41:34.288Z,6.10
2023-03-16T19:44:08.177Z,6.20
2023-03-16T19:46:34.942Z,6.20
2023-03-16T19:49:01.566Z,6.20
2023-03-16T19:51:29.192Z,6.20
2023-03-16T19:53:56.078Z,6.20
2023-03-16T19:56:24.940Z,6.20
2023-03-16T19:58:54.319Z,6.10
2023-03-16T20:01:25.053Z,6.10
2023-03-16T20:03:53.196Z,6.10
2023-03-16T20:06:22.233Z,6.10
2023-03-16T20:08:50.375Z,6.10
2023-03-16T20:11:21.289Z,6.10
2023-03-16T20:13:48.375Z,6.00
2023-03-16T20:16:26.634Z,6.10
2023-03-16T20:18:56.157Z,6.00
2023-03-16T20:21:22.885Z,6.00
2023-03-16T20:23:49.844Z,6.00
2023-03-16T20:26:20.892Z,6.00
2023-03-16T20:28:48.872Z,5.90
2023-03-16T20:31:18.683Z,5.90
2023-03-16T20:33:46.002Z,6.00
2023-03-16T20:36:13.231Z,6.00
2023-03-16T20:38:40.082Z,6.00
2023-03-16T20:41:14.206Z,5.90
2023-03-16T20:43:41.482Z,6.00
2023-03-16T20:46:16.140Z,5.90
2023-03-16T20:48:43.129Z,5.90
2023-03-16T20:51:15.265Z,5.90
2023-03-16T20:53:46.461Z,5.90
2023-03-16T20:56:18.432Z,5.90
2023-03-16T20:58:47.729Z,5.90
2023-03-16T21:01:18.316Z,5.90
2023-03-16T21:03:47.534Z,5.90
2023-03-16T21:06:23.527Z,5.90
2023-03-16T21:08:51.924Z,5.90
2023-03-16T21:11:22.342Z,5.90
2023-03-16T21:13:49.454Z,5.80
2023-03-16T21:16:16.586Z,5.80
2023-03-16T21:18:43.268Z,5.90
2023-03-16T21:21:15.491Z,5.90
2023-03-16T21:23:42.344Z,5.90
2023-03-16T21:26:15.968Z,5.80
2023-03-16T21:28:43.820Z,5.80
2023-03-16T21:31:19.345Z,5.80
2023-03-16T21:33:46.443Z,5.90
2023-03-16T21:36:19.910Z,5.90
2023-03-16T21:38:47.173Z,5.90
2023-03-16T21:41:14.799Z,5.90
2023-03-16T21:43:42.928Z,5.90
2023-03-16T21:46:18.243Z,5.90
2023-03-16T21:48:49.425Z,5.90
2023-03-16T21:51:20.809Z,6.00
2023-03-16T21:53:49.170Z,6.00
2023-03-16T21:56:18.574Z,5.90
2023-03-16T21:58:47.022Z,5.90
2023-03-16T22:01:26.004Z,6.00
2023-03-16T22:03:55.340Z,6.00
2023-03-16T22:06:23.414Z,6.00
2023-03-16T22:08:51.289Z,5.90
2023-03-16T22:11:23.882Z,5.90
2023-03-16T22:13:51.852Z,5.80
2023-03-16T22:16:21.641Z,5.80
2023-03-16T22:18:51.858Z,5.80
2023-03-16T22:21:40.138Z,5.80
2023-03-16T22:24:17.767Z,5.70
2023-03-16T22:26:46.110Z,5.70
2023-03-16T22:29:31.511Z,5.70
2023-03-16T22:32:02.852Z,5.70
2023-03-16T22:34:29.481Z,5.70
2023-03-16T22:36:57.362Z,5.70
2023-03-16T22:39:24.228Z,5.70
2023-03-16T22:41:51.820Z,5.60
2023-03-16T22:44:22.705Z,5.60
2023-03-16T22:46:50.638Z,5.60
2023-03-16T22:49:27.758Z,5.70
2023-03-16T22:51:57.194Z,5.60
2023-03-16T22:54:27.097Z,5.60
2023-03-16T22:56:54.158Z,5.60
2023-03-16T22:59:24.378Z,5.60
2023-03-16T23:01:51.538Z,5.60
2023-03-16T23:04:24.389Z,5.60
2023-03-16T23:06:53.329Z,5.60
2023-03-16T23:09:21.717Z,5.60
2023-03-16T23:11:53.624Z,5.50
2023-03-16T23:14:27.166Z,5.50
2023-03-16T23:16:53.956Z,5.50
2023-03-16T23:19:25.094Z,5.50
2023-03-16T23:21:54.777Z,5.50
2023-03-16T23:24:22.288Z,5.50
2023-03-16T23:26:50.229Z,5.50
2023-03-16T23:29:16.957Z,5.50
2023-03-16T23:31:43.974Z,5.50
2023-03-16T23:34:16.822Z,5.40
2023-03-16T23:36:44.516Z,5.50
2023-03-16T23:39:12.008Z,5.50
2023-03-16T23:41:41.788Z,5.50
2023-03-16T23:44:10.501Z,5.50
2023-03-16T23:46:37.253Z,5.50
2023-03-16T23:49:04.873Z,5.50
2023-03-16T23:51:36.591Z,5.50
2023-03-16T23:54:21.020Z,5.50
2023-03-16T23:56:47.930Z,5.50
2023-03-16T23:59:14.682Z,5.50
